Terminal Aerodrome Forecast
Issued by NWS Sterling, VA

Current Version | Previous Version | Graphics & Text | Print | Product List | Glossary On
Versions: 1 2 3 4 5 6 7 8 9 10 11 12 13 14 15 16 17 18 19 20 21 22 23 24
000
FTUS41 KLWX 282300
TAFIAD
TAF
KIAD 282327Z 2900/3006 30014G22KT P6SM BKN070
     FM290200 31009KT P6SM SCT090
     FM290800 31005KT P6SM SCT090
     FM291500 30009KT P6SM SCT090=

USA.gov is the U.S. government's official web portal to all federal, state and local government web resources and services.